sensor_id;sensor_type;location;lat;lon;timestamp;P1;durP1;ratioP1;P2;durP2;ratioP2
4758;SDS011;2393;50.560;12.636;2023-03-01T00:00:05;12.55;;;6.20;;
4758;SDS011;2393;50.560;12.636;2023-03-01T00:02:36;5.05;;;4.55;;
4758;SDS011;2393;50.560;12.636;2023-03-01T00:05:05;14.38;;;6.07;;
4758;SDS011;2393;50.560;12.636;2023-03-01T00:07:33;11.80;;;5.32;;
4758;SDS011;2393;50.560;12.636;2023-03-01T00:10:01;9.68;;;6.70;;
4758;SDS011;2393;50.560;12.636;2023-03-01T00:12:32;6.05;;;4.70;;
4758;SDS011;2393;50.560;12.636;2023-03-01T00:15:00;6.97;;;4.40;;
4758;SDS011;2393;50.560;12.636;2023-03-01T00:17:27;8.57;;;5.38;;
4758;SDS011;2393;50.560;12.636;2023-03-01T00:19:55;10.45;;;5.30;;
4758;SDS011;2393;50.560;12.636;2023-03-01T00:22:23;6.90;;;5.28;;
4758;SDS011;2393;50.560;12.636;2023-03-01T00:24:58;8.00;;;5.63;;
4758;SDS011;2393;50.560;12.636;2023-03-01T00:27:26;5.35;;;4.63;;
4758;SDS011;2393;50.560;12.636;2023-03-01T00:29:55;6.70;;;4.85;;
4758;SDS011;2393;50.560;12.636;2023-03-01T00:32:24;10.25;;;4.72;;
4758;SDS011;2393;50.560;12.636;2023-03-01T00:34:52;8.77;;;5.65;;
4758;SDS011;2393;50.560;12.636;2023-03-01T00:37:22;5.97;;;5.28;;
4758;SDS011;2393;50.560;12.636;2023-03-01T00:39:50;9.68;;;4.65;;
4758;SDS011;2393;50.560;12.636;2023-03-01T00:42:18;8.98;;;5.68;;
4758;SDS011;2393;50.560;12.636;2023-03-01T00:44:46;9.88;;;4.60;;
4758;SDS011;2393;50.560;12.636;2023-03-01T00:47:16;8.98;;;5.55;;
4758;SDS011;2393;50.560;12.636;2023-03-01T00:49:43;7.20;;;4.70;;
4758;SDS011;2393;50.560;12.636;2023-03-01T00:52:11;6.75;;;5.20;;
4758;SDS011;2393;50.560;12.636;2023-03-01T00:54:39;6.28;;;4.35;;
4758;SDS011;2393;50.560;12.636;2023-03-01T00:57:07;9.05;;;5.07;;
4758;SDS011;2393;50.560;12.636;2023-03-01T00:59:35;4.95;;;4.50;;
4758;SDS011;2393;50.560;12.636;2023-03-01T01:02:03;6.47;;;4.82;;
4758;SDS011;2393;50.560;12.636;2023-03-01T01:04:32;5.45;;;5.10;;
4758;SDS011;2393;50.560;12.636;2023-03-01T01:07:00;6.20;;;4.72;;
4758;SDS011;2393;50.560;12.636;2023-03-01T01:09:28;5.82;;;3.70;;
4758;SDS011;2393;50.560;12.636;2023-03-01T01:11:56;5.30;;;3.97;;
4758;SDS011;2393;50.560;12.636;2023-03-01T01:14:24;10.20;;;5.40;;
4758;SDS011;2393;50.560;12.636;2023-03-01T01:16:53;8.57;;;5.38;;
4758;SDS011;2393;50.560;12.636;2023-03-01T01:19:22;7.72;;;4.88;;
4758;SDS011;2393;50.560;12.636;2023-03-01T01:21:52;6.10;;;4.35;;
4758;SDS011;2393;50.560;12.636;2023-03-01T01:24:20;4.50;;;4.10;;
4758;SDS011;2393;50.560;12.636;2023-03-01T01:26:48;6.68;;;4.95;;
4758;SDS011;2393;50.560;12.636;2023-03-01T01:29:16;3.67;;;3.40;;
4758;SDS011;2393;50.560;12.636;2023-03-01T01:31:45;5.88;;;5.38;;
4758;SDS011;2393;50.560;12.636;2023-03-01T01:34:13;5.80;;;4.60;;
4758;SDS011;2393;50.560;12.636;2023-03-01T01:36:43;4.75;;;4.32;;
4758;SDS011;2393;50.560;12.636;2023-03-01T01:39:16;6.57;;;4.82;;
4758;SDS011;2393;50.560;12.636;2023-03-01T01:41:44;6.15;;;4.22;;
4758;SDS011;2393;50.560;12.636;2023-03-01T01:44:14;6.13;;;4.90;;
4758;SDS011;2393;50.560;12.636;2023-03-01T01:46:46;5.00;;;4.32;;
4758;SDS011;2393;50.560;12.636;2023-03-01T01:49:19;5.65;;;4.47;;
4758;SDS011;2393;50.560;12.636;2023-03-01T01:51:55;9.80;;;5.55;;
4758;SDS011;2393;50.560;12.636;2023-03-01T01:54:31;6.20;;;4.88;;
4758;SDS011;2393;50.560;12.636;2023-03-01T01:57:07;7.10;;;5.65;;
4758;SDS011;2393;50.560;12.636;2023-03-01T01:59:39;5.45;;;4.40;;
4758;SDS011;2393;50.560;12.636;2023-03-01T02:02:13;6.30;;;4.60;;
4758;SDS011;2393;50.560;12.636;2023-03-01T02:04:41;8.00;;;4.70;;
4758;SDS011;2393;50.560;12.636;2023-03-01T02:07:13;6.47;;;4.10;;
4758;SDS011;2393;50.560;12.636;2023-03-01T02:09:45;6.50;;;4.55;;
4758;SDS011;2393;50.560;12.636;2023-03-01T02:12:15;8.90;;;5.85;;
4758;SDS011;2393;50.560;12.636;2023-03-01T02:14:46;8.32;;;5.18;;
4758;SDS011;2393;50.560;12.636;2023-03-01T02:17:14;9.63;;;5.65;;
4758;SDS011;2393;50.560;12.636;2023-03-01T02:19:46;6.53;;;4.45;;
4758;SDS011;2393;50.560;12.636;2023-03-01T02:22:22;9.20;;;4.07;;
4758;SDS011;2393;50.560;12.636;2023-03-01T02:24:57;7.53;;;4.18;;
4758;SDS011;2393;50.560;12.636;2023-03-01T02:27:38;6.50;;;4.65;;
4758;SDS011;2393;50.560;12.636;2023-03-01T02:30:12;6.25;;;4.30;;
4758;SDS011;2393;50.560;12.636;2023-03-01T02:32:40;9.50;;;3.63;;
4758;SDS011;2393;50.560;12.636;2023-03-01T02:35:09;6.50;;;5.85;;
4758;SDS011;2393;50.560;12.636;2023-03-01T02:37:40;4.47;;;4.18;;
4758;SDS011;2393;50.560;12.636;2023-03-01T02:40:10;4.63;;;4.32;;
4758;SDS011;2393;50.560;12.636;2023-03-01T02:42:45;10.00;;;5.47;;
4758;SDS011;2393;50.560;12.636;2023-03-01T02:45:19;7.43;;;4.80;;
4758;SDS011;2393;50.560;12.636;2023-03-01T02:47:47;6.65;;;4.55;;
4758;SDS011;2393;50.560;12.636;2023-03-01T02:50:27;4.20;;;3.85;;
4758;SDS011;2393;50.560;12.636;2023-03-01T02:53:15;5.63;;;4.93;;
4758;SDS011;2393;50.560;12.636;2023-03-01T02:55:48;6.50;;;4.07;;
4758;SDS011;2393;50.560;12.636;2023-03-01T02:58:17;5.80;;;4.35;;
4758;SDS011;2393;50.560;12.636;2023-03-01T03:00:46;8.50;;;4.72;;
4758;SDS011;2393;50.560;12.636;2023-03-01T03:03:16;6.80;;;4.03;;
4758;SDS011;2393;50.560;12.636;2023-03-01T03:05:46;8.02;;;4.80;;
4758;SDS011;2393;50.560;12.636;2023-03-01T03:08:15;6.82;;;4.15;;
4758;SDS011;2393;50.560;12.636;2023-03-01T03:10:50;8.82;;;4.93;;
4758;SDS011;2393;50.560;12.636;2023-03-01T03:13:19;8.13;;;5.32;;
4758;SDS011;2393;50.560;12.636;2023-03-01T03:15:50;5.90;;;4.20;;
4758;SDS011;2393;50.560;12.636;2023-03-01T03:18:18;6.93;;;4.47;;
4758;SDS011;2393;50.560;12.636;2023-03-01T03:20:46;9.38;;;3.40;;
4758;SDS011;2393;50.560;12.636;2023-03-01T03:23:14;9.95;;;5.10;;
4758;SDS011;2393;50.560;12.636;2023-03-01T03:25:41;12.57;;;3.45;;
4758;SDS011;2393;50.560;12.636;2023-03-01T03:28:09;4.30;;;3.90;;
4758;SDS011;2393;50.560;12.636;2023-03-01T03:30:38;6.20;;;4.18;;
4758;SDS011;2393;50.560;12.636;2023-03-01T03:33:09;5.38;;;4.22;;
4758;SDS011;2393;50.560;12.636;2023-03-01T03:35:40;5.03;;;4.40;;
4758;SDS011;2393;50.560;12.636;2023-03-01T03:38:10;3.97;;;3.67;;
4758;SDS011;2393;50.560;12.636;2023-03-01T03:40:43;5.07;;;4.40;;
4758;SDS011;2393;50.560;12.636;2023-03-01T03:43:13;4.70;;;4.20;;
4758;SDS011;2393;50.560;12.636;2023-03-01T03:45:43;5.40;;;3.67;;
4758;SDS011;2393;50.560;12.636;2023-03-01T03:48:13;5.25;;;4.75;;
4758;SDS011;2393;50.560;12.636;2023-03-01T03:50:41;4.68;;;4.35;;
4758;SDS011;2393;50.560;12.636;2023-03-01T03:53:14;7.40;;;5.43;;
4758;SDS011;2393;50.560;12.636;2023-03-01T03:55:42;5.00;;;4.60;;
4758;SDS011;2393;50.560;12.636;2023-03-01T03:58:10;5.38;;;4.50;;
4758;SDS011;2393;50.560;12.636;2023-03-01T04:00:39;9.77;;;4.80;;
4758;SDS011;2393;50.560;12.636;2023-03-01T04:03:09;5.22;;;3.70;;
4758;SDS011;2393;50.560;12.636;2023-03-01T04:05:39;9.25;;;5.55;;
4758;SDS011;2393;50.560;12.636;2023-03-01T04:08:08;10.00;;;4.13;;
4758;SDS011;2393;50.560;12.636;2023-03-01T04:10:36;6.95;;;5.60;;
4758;SDS011;2393;50.560;12.636;2023-03-01T04:13:06;10.45;;;4.57;;
4758;SDS011;2393;50.560;12.636;2023-03-01T04:15:37;4.38;;;4.05;;
4758;SDS011;2393;50.560;12.636;2023-03-01T04:18:05;7.05;;;4.38;;
4758;SDS011;2393;50.560;12.636;2023-03-01T04:20:34;5.43;;;4.80;;
4758;SDS011;2393;50.560;12.636;2023-03-01T04:23:05;4.13;;;3.58;;
4758;SDS011;2393;50.560;12.636;2023-03-01T04:25:42;4.70;;;4.40;;
4758;SDS011;2393;50.560;12.636;2023-03-01T04:28:12;4.82;;;4.50;;
4758;SDS011;2393;50.560;12.636;2023-03-01T04:30:41;6.68;;;4.95;;
4758;SDS011;2393;50.560;12.636;2023-03-01T04:33:09;8.15;;;4.28;;
4758;SDS011;2393;50.560;12.636;2023-03-01T04:35:38;6.47;;;5.50;;
4758;SDS011;2393;50.560;12.636;2023-03-01T04:38:08;8.50;;;5.68;;
4758;SDS011;2393;50.560;12.636;2023-03-01T04:40:37;7.03;;;4.32;;
4758;SDS011;2393;50.560;12.636;2023-03-01T04:43:05;7.32;;;4.70;;
4758;SDS011;2393;50.560;12.636;2023-03-01T04:45:33;13.43;;;4.05;;
4758;SDS011;2393;50.560;12.636;2023-03-01T04:48:01;10.75;;;4.63;;
4758;SDS011;2393;50.560;12.636;2023-03-01T04:50:29;8.35;;;5.70;;
4758;SDS011;2393;50.560;12.636;2023-03-01T04:52:58;4.10;;;3.80;;
4758;SDS011;2393;50.560;12.636;2023-03-01T04:55:27;9.65;;;4.55;;
4758;SDS011;2393;50.560;12.636;2023-03-01T04:57:55;4.28;;;3.97;;
4758;SDS011;2393;50.560;12.636;2023-03-01T05:00:23;12.80;;;4.38;;
4758;SDS011;2393;50.560;12.636;2023-03-01T05:02:52;3.70;;;3.47;;
4758;SDS011;2393;50.560;12.636;2023-03-01T05:05:22;8.60;;;4.60;;
4758;SDS011;2393;50.560;12.636;2023-03-01T05:07:53;5.50;;;4.00;;
4758;SDS011;2393;50.560;12.636;2023-03-01T05:10:22;8.93;;;4.38;;
4758;SDS011;2393;50.560;12.636;2023-03-01T05:12:52;10.18;;;4.85;;
4758;SDS011;2393;50.560;12.636;2023-03-01T05:15:20;4.35;;;3.95;;
4758;SDS011;2393;50.560;12.636;2023-03-01T05:17:52;4.50;;;4.13;;
4758;SDS011;2393;50.560;12.636;2023-03-01T05:20:21;11.30;;;7.18;;
4758;SDS011;2393;50.560;12.636;2023-03-01T05:22:50;10.45;;;5.70;;
4758;SDS011;2393;50.560;12.636;2023-03-01T05:25:19;13.57;;;4.97;;
4758;SDS011;2393;50.560;12.636;2023-03-01T05:27:47;8.30;;;4.57;;
4758;SDS011;2393;50.560;12.636;2023-03-01T05:30:17;5.88;;;4.20;;
4758;SDS011;2393;50.560;12.636;2023-03-01T05:32:46;9.82;;;6.03;;
4758;SDS011;2393;50.560;12.636;2023-03-01T05:35:16;6.60;;;4.45;;
4758;SDS011;2393;50.560;12.636;2023-03-01T05:37:46;4.40;;;3.97;;
4758;SDS011;2393;50.560;12.636;2023-03-01T05:40:17;7.28;;;6.70;;
4758;SDS011;2393;50.560;12.636;2023-03-01T05:42:47;4.55;;;4.05;;
4758;SDS011;2393;50.560;12.636;2023-03-01T05:45:18;8.57;;;5.50;;
4758;SDS011;2393;50.560;12.636;2023-03-01T05:47:47;15.02;;;4.70;;
4758;SDS011;2393;50.560;12.636;2023-03-01T05:50:16;5.03;;;4.38;;
4758;SDS011;2393;50.560;12.636;2023-03-01T05:52:47;6.22;;;4.45;;
4758;SDS011;2393;50.560;12.636;2023-03-01T05:55:16;12.50;;;4.50;;
4758;SDS011;2393;50.560;12.636;2023-03-01T05:57:45;12.20;;;4.35;;
4758;SDS011;2393;50.560;12.636;2023-03-01T06:00:14;9.60;;;5.15;;
4758;SDS011;2393;50.560;12.636;2023-03-01T06:02:46;8.82;;;4.95;;
4758;SDS011;2393;50.560;12.636;2023-03-01T06:05:14;7.47;;;3.83;;
4758;SDS011;2393;50.560;12.636;2023-03-01T06:07:42;7.97;;;4.63;;
4758;SDS011;2393;50.560;12.636;2023-03-01T06:10:11;5.93;;;4.47;;
4758;SDS011;2393;50.560;12.636;2023-03-01T06:12:40;8.18;;;3.67;;
4758;SDS011;2393;50.560;12.636;2023-03-01T06:15:10;5.18;;;4.63;;
4758;SDS011;2393;50.560;12.636;2023-03-01T06:17:40;5.20;;;4.70;;
4758;SDS011;2393;50.560;12.636;2023-03-01T06:20:12;6.40;;;4.85;;
4758;SDS011;2393;50.560;12.636;2023-03-01T06:22:41;6.95;;;4.18;;
4758;SDS011;2393;50.560;12.636;2023-03-01T06:25:10;4.15;;;3.85;;
4758;SDS011;2393;50.560;12.636;2023-03-01T06:27:40;7.47;;;4.75;;
4758;SDS011;2393;50.560;12.636;2023-03-01T06:30:09;7.15;;;4.32;;
4758;SDS011;2393;50.560;12.636;2023-03-01T06:32:40;4.72;;;4.30;;
4758;SDS011;2393;50.560;12.636;2023-03-01T06:35:10;8.63;;;4.75;;
4758;SDS011;2393;50.560;12.636;2023-03-01T06:37:39;5.60;;;4.55;;
4758;SDS011;2393;50.560;12.636;2023-03-01T06:40:09;8.05;;;4.75;;
4758;SDS011;2393;50.560;12.636;2023-03-01T06:42:40;11.88;;;5.32;;
4758;SDS011;2393;50.560;12.636;2023-03-01T06:45:09;6.22;;;4.60;;
4758;SDS011;2393;50.560;12.636;2023-03-01T06:47:38;8.13;;;5.15;;
4758;SDS011;2393;50.560;12.636;2023-03-01T06:50:06;8.07;;;5.15;;
4758;SDS011;2393;50.560;12.636;2023-03-01T06:52:37;9.13;;;5.72;;
4758;SDS011;2393;50.560;12.636;2023-03-01T06:55:06;8.38;;;5.25;;
4758;SDS011;2393;50.560;12.636;2023-03-01T06:57:34;7.10;;;4.50;;
4758;SDS011;2393;50.560;12.636;2023-03-01T07:00:02;9.90;;;5.57;;
4758;SDS011;2393;50.560;12.636;2023-03-01T07:02:32;16.00;;;5.75;;
4758;SDS011;2393;50.560;12.636;2023-03-01T07:05:00;7.50;;;4.00;;
4758;SDS011;2393;50.560;12.636;2023-03-01T07:07:28;10.73;;;4.38;;
4758;SDS011;2393;50.560;12.636;2023-03-01T07:09:57;5.93;;;3.63;;
4758;SDS011;2393;50.560;12.636;2023-03-01T07:12:25;8.15;;;4.40;;
4758;SDS011;2393;50.560;12.636;2023-03-01T07:14:53;8.55;;;4.10;;
4758;SDS011;2393;50.560;12.636;2023-03-01T07:17:21;4.97;;;3.88;;
4758;SDS011;2393;50.560;12.636;2023-03-01T07:19:49;10.18;;;5.15;;
4758;SDS011;2393;50.560;12.636;2023-03-01T07:22:17;7.38;;;4.22;;
4758;SDS011;2393;50.560;12.636;2023-03-01T07:24:45;7.60;;;4.93;;
4758;SDS011;2393;50.560;12.636;2023-03-01T07:27:15;9.88;;;4.15;;
4758;SDS011;2393;50.560;12.636;2023-03-01T07:29:43;14.85;;;7.22;;
4758;SDS011;2393;50.560;12.636;2023-03-01T07:32:11;10.43;;;6.43;;
4758;SDS011;2393;50.560;12.636;2023-03-01T07:34:39;9.23;;;6.03;;
4758;SDS011;2393;50.560;12.636;2023-03-01T07:37:07;14.15;;;6.50;;
4758;SDS011;2393;50.560;12.636;2023-03-01T07:39:35;13.13;;;6.50;;
4758;SDS011;2393;50.560;12.636;2023-03-01T07:42:03;12.02;;;7.60;;
4758;SDS011;2393;50.560;12.636;2023-03-01T07:44:33;14.93;;;7.93;;
4758;SDS011;2393;50.560;12.636;2023-03-01T07:47:02;11.33;;;7.97;;
4758;SDS011;2393;50.560;12.636;2023-03-01T07:49:30;13.27;;;8.20;;
4758;SDS011;2393;50.560;12.636;2023-03-01T07:51:58;11.73;;;6.30;;
4758;SDS011;2393;50.560;12.636;2023-03-01T07:54:26;12.90;;;7.53;;
4758;SDS011;2393;50.560;12.636;2023-03-01T07:56:55;12.90;;;8.20;;
4758;SDS011;2393;50.560;12.636;2023-03-01T07:59:23;21.90;;;6.17;;
4758;SDS011;2393;50.560;12.636;2023-03-01T08:01:56;11.63;;;5.47;;
4758;SDS011;2393;50.560;12.636;2023-03-01T08:04:25;7.70;;;5.07;;
4758;SDS011;2393;50.560;12.636;2023-03-01T08:06:53;10.37;;;6.13;;
4758;SDS011;2393;50.560;12.636;2023-03-01T08:09:22;10.53;;;5.90;;
4758;SDS011;2393;50.560;12.636;2023-03-01T08:11:50;14.73;;;5.93;;
4758;SDS011;2393;50.560;12.636;2023-03-01T08:14:18;7.90;;;6.27;;
4758;SDS011;2393;50.560;12.636;2023-03-01T08:16:48;11.80;;;6.73;;
4758;SDS011;2393;50.560;12.636;2023-03-01T08:19:18;14.27;;;6.73;;
4758;SDS011;2393;50.560;12.636;2023-03-01T08:21:46;8.40;;;6.17;;
4758;SDS011;2393;50.560;12.636;2023-03-01T08:24:14;12.97;;;8.00;;
4758;SDS011;2393;50.560;12.636;2023-03-01T08:26:42;23.07;;;11.90;;
4758;SDS011;2393;50.560;12.636;2023-03-01T08:29:10;21.80;;;13.43;;
4758;SDS011;2393;50.560;12.636;2023-03-01T08:31:39;18.53;;;10.17;;
4758;SDS011;2393;50.560;12.636;2023-03-01T08:34:08;21.70;;;11.03;;
4758;SDS011;2393;50.560;12.636;2023-03-01T08:36:40;20.97;;;10.80;;
4758;SDS011;2393;50.560;12.636;2023-03-01T08:39:10;19.40;;;9.80;;
4758;SDS011;2393;50.560;12.636;2023-03-01T08:41:40;21.23;;;12.57;;
4758;SDS011;2393;50.560;12.636;2023-03-01T08:44:09;18.90;;;9.97;;
4758;SDS011;2393;50.560;12.636;2023-03-01T08:46:39;20.97;;;11.70;;
4758;SDS011;2393;50.560;12.636;2023-03-01T08:49:10;23.13;;;13.20;;
4758;SDS011;2393;50.560;12.636;2023-03-01T08:51:41;28.30;;;14.93;;
4758;SDS011;2393;50.560;12.636;2023-03-01T08:54:10;32.30;;;17.00;;
4758;SDS011;2393;50.560;12.636;2023-03-01T08:56:41;32.13;;;14.57;;
4758;SDS011;2393;50.560;12.636;2023-03-01T08:59:09;28.80;;;14.50;;
4758;SDS011;2393;50.560;12.636;2023-03-01T09:01:38;29.47;;;15.87;;
4758;SDS011;2393;50.560;12.636;2023-03-01T09:04:06;28.37;;;13.30;;
4758;SDS011;2393;50.560;12.636;2023-03-01T09:06:33;40.73;;;17.23;;
4758;SDS011;2393;50.560;12.636;2023-03-01T09:09:03;31.10;;;13.50;;
4758;SDS011;2393;50.560;12.636;2023-03-01T09:11:34;56.53;;;25.63;;
4758;SDS011;2393;50.560;12.636;2023-03-01T09:14:04;57.00;;;21.43;;
4758;SDS011;2393;50.560;12.636;2023-03-01T09:16:33;40.70;;;17.77;;
4758;SDS011;2393;50.560;12.636;2023-03-01T09:19:02;27.63;;;13.80;;
4758;SDS011;2393;50.560;12.636;2023-03-01T09:21:31;36.50;;;17.03;;
4758;SDS011;2393;50.560;12.636;2023-03-01T09:24:08;26.87;;;15.10;;
4758;SDS011;2393;50.560;12.636;2023-03-01T09:26:40;24.50;;;13.43;;
4758;SDS011;2393;50.560;12.636;2023-03-01T09:29:08;27.57;;;14.77;;
4758;SDS011;2393;50.560;12.636;2023-03-01T09:31:37;22.90;;;12.80;;
4758;SDS011;2393;50.560;12.636;2023-03-01T09:34:05;22.67;;;11.37;;
4758;SDS011;2393;50.560;12.636;2023-03-01T09:36:34;20.10;;;10.53;;
4758;SDS011;2393;50.560;12.636;2023-03-01T09:39:03;28.63;;;12.37;;
4758;SDS011;2393;50.560;12.636;2023-03-01T09:41:43;19.17;;;10.60;;
4758;SDS011;2393;50.560;12.636;2023-03-01T09:44:23;24.47;;;12.83;;
4758;SDS011;2393;50.560;12.636;2023-03-01T09:47:00;17.27;;;9.53;;
4758;SDS011;2393;50.560;12.636;2023-03-01T09:49:29;17.07;;;9.80;;
4758;SDS011;2393;50.560;12.636;2023-03-01T09:52:00;19.97;;;10.07;;
4758;SDS011;2393;50.560;12.636;2023-03-01T09:54:34;15.10;;;8.97;;
4758;SDS011;2393;50.560;12.636;2023-03-01T09:57:06;18.03;;;9.60;;
4758;SDS011;2393;50.560;12.636;2023-03-01T09:59:52;21.83;;;10.07;;
4758;SDS011;2393;50.560;12.636;2023-03-01T10:02:31;17.33;;;9.33;;
4758;SDS011;2393;50.560;12.636;2023-03-01T10:05:11;18.50;;;9.83;;
4758;SDS011;2393;50.560;12.636;2023-03-01T10:07:49;22.83;;;11.80;;
4758;SDS011;2393;50.560;12.636;2023-03-01T10:10:26;17.43;;;9.33;;
4758;SDS011;2393;50.560;12.636;2023-03-01T10:12:57;21.30;;;10.90;;
4758;SDS011;2393;50.560;12.636;2023-03-01T10:15:30;14.43;;;9.00;;
4758;SDS011;2393;50.560;12.636;2023-03-01T10:18:06;24.83;;;10.70;;
4758;SDS011;2393;50.560;12.636;2023-03-01T10:20:42;17.80;;;9.80;;
4758;SDS011;2393;50.560;12.636;2023-03-01T10:23:13;14.13;;;9.20;;
4758;SDS011;2393;50.560;12.636;2023-03-01T10:25:44;19.10;;;10.27;;
4758;SDS011;2393;50.560;12.636;2023-03-01T10:28:24;17.80;;;9.70;;
4758;SDS011;2393;50.560;12.636;2023-03-01T10:30:57;15.50;;;8.77;;
4758;SDS011;2393;50.560;12.636;2023-03-01T10:33:27;20.63;;;9.63;;
4758;SDS011;2393;50.560;12.636;2023-03-01T10:35:58;23.10;;;11.10;;
4758;SDS011;2393;50.560;12.636;2023-03-01T10:38:27;20.50;;;9.97;;
4758;SDS011;2393;50.560;12.636;2023-03-01T10:40:59;14.07;;;9.33;;
4758;SDS011;2393;50.560;12.636;2023-03-01T10:43:40;22.30;;;10.70;;
4758;SDS011;2393;50.560;12.636;2023-03-01T10:46:22;19.07;;;9.83;;
4758;SDS011;2393;50.560;12.636;2023-03-01T10:49:12;16.83;;;9.47;;
4758;SDS011;2393;50.560;12.636;2023-03-01T10:51:42;18.80;;;11.03;;
4758;SDS011;2393;50.560;12.636;2023-03-01T10:54:16;18.10;;;9.90;;
4758;SDS011;2393;50.560;12.636;2023-03-01T10:56:47;18.53;;;11.30;;
4758;SDS011;2393;50.560;12.636;2023-03-01T10:59:24;21.03;;;10.67;;
4758;SDS011;2393;50.560;12.636;2023-03-01T11:02:02;21.20;;;10.80;;
4758;SDS011;2393;50.560;12.636;2023-03-01T11:04:57;22.73;;;10.30;;
4758;SDS011;2393;50.560;12.636;2023-03-01T11:07:27;29.23;;;9.97;;
4758;SDS011;2393;50.560;12.636;2023-03-01T11:09:56;20.10;;;11.93;;
4758;SDS011;2393;50.560;12.636;2023-03-01T11:12:24;26.53;;;12.37;;
4758;SDS011;2393;50.560;12.636;2023-03-01T11:14:56;19.43;;;10.73;;
4758;SDS011;2393;50.560;12.636;2023-03-01T11:17:26;21.50;;;11.40;;
4758;SDS011;2393;50.560;12.636;2023-03-01T11:20:04;17.40;;;11.03;;
4758;SDS011;2393;50.560;12.636;2023-03-01T11:22:44;23.47;;;12.83;;
4758;SDS011;2393;50.560;12.636;2023-03-01T11:25:15;26.27;;;13.90;;
4758;SDS011;2393;50.560;12.636;2023-03-01T11:27:46;23.33;;;12.80;;
4758;SDS011;2393;50.560;12.636;2023-03-01T11:30:18;21.00;;;12.67;;
4758;SDS011;2393;50.560;12.636;2023-03-01T11:32:53;20.47;;;11.80;;
4758;SDS011;2393;50.560;12.636;2023-03-01T11:35:30;22.00;;;13.53;;
4758;SDS011;2393;50.560;12.636;2023-03-01T11:38:08;23.57;;;13.40;;
4758;SDS011;2393;50.560;12.636;2023-03-01T11:40:44;25.03;;;13.43;;
4758;SDS011;2393;50.560;12.636;2023-03-01T11:43:22;22.40;;;12.63;;
4758;SDS011;2393;50.560;12.636;2023-03-01T11:46:11;20.63;;;12.90;;
4758;SDS011;2393;50.560;12.636;2023-03-01T11:49:03;23.50;;;13.07;;
4758;SDS011;2393;50.560;12.636;2023-03-01T11:51:45;23.10;;;12.53;;
4758;SDS011;2393;50.560;12.636;2023-03-01T11:54:26;23.10;;;14.20;;
4758;SDS011;2393;50.560;12.636;2023-03-01T11:57:01;30.23;;;13.30;;
4758;SDS011;2393;50.560;12.636;2023-03-01T11:59:44;24.50;;;14.30;;
4758;SDS011;2393;50.560;12.636;2023-03-01T12:03:13;23.43;;;13.70;;
4758;SDS011;2393;50.560;12.636;2023-03-01T12:05:59;27.50;;;13.77;;
4758;SDS011;2393;50.560;12.636;2023-03-01T12:09:13;26.77;;;13.43;;
4758;SDS011;2393;50.560;12.636;2023-03-01T12:11:56;25.90;;;13.57;;
4758;SDS011;2393;50.560;12.636;2023-03-01T12:17:55;31.47;;;14.30;;
4758;SDS011;2393;50.560;12.636;2023-03-01T12:20:35;23.20;;;13.10;;
4758;SDS011;2393;50.560;12.636;2023-03-01T12:23:16;23.07;;;12.63;;
4758;SDS011;2393;50.560;12.636;2023-03-01T12:25:58;27.30;;;14.00;;
4758;SDS011;2393;50.560;12.636;2023-03-01T12:28:36;25.90;;;13.60;;
4758;SDS011;2393;50.560;12.636;2023-03-01T12:31:28;27.47;;;13.20;;
4758;SDS011;2393;50.560;12.636;2023-03-01T12:34:11;27.70;;;13.43;;
4758;SDS011;2393;50.560;12.636;2023-03-01T12:39:47;26.40;;;14.87;;
4758;SDS011;2393;50.560;12.636;2023-03-01T12:42:27;24.17;;;13.37;;
4758;SDS011;2393;50.560;12.636;2023-03-01T12:45:23;23.80;;;12.87;;
4758;SDS011;2393;50.560;12.636;2023-03-01T12:48:20;21.47;;;12.10;;
4758;SDS011;2393;50.560;12.636;2023-03-01T12:50:57;24.87;;;13.47;;
4758;SDS011;2393;50.560;12.636;2023-03-01T12:53:31;24.07;;;13.13;;
4758;SDS011;2393;50.560;12.636;2023-03-01T12:56:05;24.60;;;12.60;;
4758;SDS011;2393;50.560;12.636;2023-03-01T12:58:36;21.50;;;11.63;;
4758;SDS011;2393;50.560;12.636;2023-03-01T13:01:19;26.10;;;12.27;;
4758;SDS011;2393;50.560;12.636;2023-03-01T13:04:08;17.13;;;11.73;;
4758;SDS011;2393;50.560;12.636;2023-03-01T13:06:46;20.33;;;11.43;;
4758;SDS011;2393;50.560;12.636;2023-03-01T13:09:25;19.50;;;10.87;;
4758;SDS011;2393;50.560;12.636;2023-03-01T13:11:59;19.83;;;11.63;;
4758;SDS011;2393;50.560;12.636;2023-03-01T13:14:37;26.00;;;12.20;;
4758;SDS011;2393;50.560;12.636;2023-03-01T13:17:29;29.73;;;12.93;;
4758;SDS011;2393;50.560;12.636;2023-03-01T13:19:59;27.23;;;12.13;;
4758;SDS011;2393;50.560;12.636;2023-03-01T13:22:29;21.40;;;10.13;;
4758;SDS011;2393;50.560;12.636;2023-03-01T13:25:03;27.37;;;12.37;;
4758;SDS011;2393;50.560;12.636;2023-03-01T13:27:41;22.87;;;11.80;;
4758;SDS011;2393;50.560;12.636;2023-03-01T13:39:28;22.37;;;11.37;;
4758;SDS011;2393;50.560;12.636;2023-03-01T13:42:03;21.03;;;11.63;;
4758;SDS011;2393;50.560;12.636;2023-03-01T13:44:53;27.00;;;11.73;;
4758;SDS011;2393;50.560;12.636;2023-03-01T13:47:22;22.73;;;12.23;;
4758;SDS011;2393;50.560;12.636;2023-03-01T13:49:52;29.93;;;13.07;;
4758;SDS011;2393;50.560;12.636;2023-03-01T13:52:30;27.43;;;13.40;;
4758;SDS011;2393;50.560;12.636;2023-03-01T13:55:13;25.90;;;12.90;;
4758;SDS011;2393;50.560;12.636;2023-03-01T13:57:50;29.83;;;13.93;;
4758;SDS011;2393;50.560;12.636;2023-03-01T14:00:25;30.67;;;13.77;;
4758;SDS011;2393;50.560;12.636;2023-03-01T14:02:59;26.47;;;13.57;;
4758;SDS011;2393;50.560;12.636;2023-03-01T14:05:38;23.83;;;12.93;;
4758;SDS011;2393;50.560;12.636;2023-03-01T14:08:18;28.40;;;15.00;;
4758;SDS011;2393;50.560;12.636;2023-03-01T14:10:57;26.30;;;12.30;;
4758;SDS011;2393;50.560;12.636;2023-03-01T14:13:51;21.53;;;12.20;;
4758;SDS011;2393;50.560;12.636;2023-03-01T14:16:32;29.97;;;13.70;;
4758;SDS011;2393;50.560;12.636;2023-03-01T14:19:14;27.00;;;13.53;;
4758;SDS011;2393;50.560;12.636;2023-03-01T14:21:58;24.53;;;13.07;;
4758;SDS011;2393;50.560;12.636;2023-03-01T14:24:31;28.90;;;13.53;;
4758;SDS011;2393;50.560;12.636;2023-03-01T14:27:02;32.43;;;13.33;;
4758;SDS011;2393;50.560;12.636;2023-03-01T14:29:35;29.17;;;14.73;;
4758;SDS011;2393;50.560;12.636;2023-03-01T14:32:11;24.80;;;13.50;;
4758;SDS011;2393;50.560;12.636;2023-03-01T14:34:45;29.57;;;13.87;;
4758;SDS011;2393;50.560;12.636;2023-03-01T14:37:19;26.57;;;14.37;;
4758;SDS011;2393;50.560;12.636;2023-03-01T14:39:49;31.97;;;14.57;;
4758;SDS011;2393;50.560;12.636;2023-03-01T14:42:17;30.20;;;15.47;;
4758;SDS011;2393;50.560;12.636;2023-03-01T14:44:48;29.73;;;14.37;;
4758;SDS011;2393;50.560;12.636;2023-03-01T14:47:21;31.20;;;15.70;;
4758;SDS011;2393;50.560;12.636;2023-03-01T14:49:56;34.23;;;15.07;;
4758;SDS011;2393;50.560;12.636;2023-03-01T14:52:29;29.00;;;14.83;;
4758;SDS011;2393;50.560;12.636;2023-03-01T14:55:02;46.27;;;15.57;;
4758;SDS011;2393;50.560;12.636;2023-03-01T14:57:34;31.77;;;15.10;;
4758;SDS011;2393;50.560;12.636;2023-03-01T15:00:05;32.63;;;14.67;;
4758;SDS011;2393;50.560;12.636;2023-03-01T15:02:35;30.10;;;14.60;;
4758;SDS011;2393;50.560;12.636;2023-03-01T15:05:06;31.90;;;14.63;;
4758;SDS011;2393;50.560;12.636;2023-03-01T15:07:36;29.27;;;15.03;;
4758;SDS011;2393;50.560;12.636;2023-03-01T15:10:14;37.83;;;15.53;;
4758;SDS011;2393;50.560;12.636;2023-03-01T15:12:46;29.53;;;13.60;;
4758;SDS011;2393;50.560;12.636;2023-03-01T15:15:30;29.70;;;15.63;;
4758;SDS011;2393;50.560;12.636;2023-03-01T15:18:04;33.27;;;15.20;;
4758;SDS011;2393;50.560;12.636;2023-03-01T15:20:40;34.27;;;16.63;;
4758;SDS011;2393;50.560;12.636;2023-03-01T15:23:16;36.45;;;15.90;;
4758;SDS011;2393;50.560;12.636;2023-03-01T15:25:48;33.67;;;16.07;;
4758;SDS011;2393;50.560;12.636;2023-03-01T15:28:23;39.22;;;16.75;;
4758;SDS011;2393;50.560;12.636;2023-03-01T15:30:57;37.63;;;16.08;;
4758;SDS011;2393;50.560;12.636;2023-03-01T15:33:30;36.88;;;16.40;;